Fair Haven, Michigan
Current Conditions -  °F | °C
As of 8:32 AM on Thursday 18 Dec 2014 (Local Time) from KMTC Reporting Station
Overcast Overcast  
Wind Chill: 24°   Ceiling: 1600
Heat Index: 30°   Visibility: 12mi
Dew Point: 30°   Wind: 6mph
Humidity: 100%   Direction: 280°W
Pressure: 30.16"   Gusts: NA
Location:  42.68°N, 82.65°W
Report Text: KMTC 181332Z 28005KT 12SM BKN016 OVC020 M01/M01 A3016
Loading
Personal Weather Stations






























Interactive Weather Map New forecast layout! Learn more

10-Day Weather Forecast

Advertisements
Track Severe Weather on mobile